Time;durP1;ratioP1;P1;durP2;ratioP2;P2;SDS_P1;SDS_P2;PMS_P1;PMS_P2;Temp;Humidity;BMP_temperature;BMP_pressure;BME280_temperature;BME280_humidity;BME280_pressure;Samples;Min_cycle;Max_cycle;Signal;HPM_P1;HPM_P2
2023/07/15 00:00:42;;;;;;;6.73;6.13;;;24.20;36.40;;;;;;5073896;28;20448;-56
2023/07/15 00:03:09;;;;;;;6.73;6.03;;;24.10;36.10;;;;;;5074238;28;20257;-56
2023/07/15 00:05:35;;;;;;;6.67;5.97;;;24.10;36.30;;;;;;5074151;28;20410;-54
2023/07/15 00:08:05;;;;;;;7.80;5.50;;;24.10;36.50;;;;;;5074261;28;20401;-54
2023/07/15 00:10:36;;;;;;;5.57;4.90;;;24.10;36.70;;;;;;5073870;28;20415;-56
2023/07/15 00:13:02;;;;;;;5.77;4.90;;;24.00;36.10;;;;;;5074104;28;20430;-56
2023/07/15 00:15:28;;;;;;;6.53;5.63;;;24.00;36.60;;;;;;5074168;28;20407;-54
2023/07/15 00:17:54;;;;;;;7.97;6.33;;;23.90;36.40;;;;;;5073726;28;20903;-56
2023/07/15 00:20:20;;;;;;;6.73;6.10;;;23.90;36.70;;;;;;5073626;28;20451;-56
2023/07/15 00:22:47;;;;;;;6.60;5.70;;;23.80;36.90;;;;;;5073651;28;20972;-53
2023/07/15 00:25:15;;;;;;;8.73;5.97;;;23.80;36.90;;;;;;5073480;28;20403;-56
2023/07/15 00:27:46;;;;;;;5.83;5.23;;;23.70;36.90;;;;;;5073645;28;20751;-57
2023/07/15 00:30:14;;;;;;;7.57;5.10;;;23.60;37.20;;;;;;5073428;28;20415;-54
2023/07/15 00:32:46;;;;;;;7.17;5.63;;;23.60;37.10;;;;;;5073571;28;20493;-56
2023/07/15 00:35:20;;;;;;;7.50;6.00;;;23.60;37.30;;;;;;5073594;28;20438;-57
2023/07/15 00:37:47;;;;;;;6.37;5.50;;;23.70;37.50;;;;;;5073514;28;20413;-54
2023/07/15 00:40:14;;;;;;;5.83;4.67;;;23.70;37.10;;;;;;5073226;28;20454;-56
2023/07/15 00:43:02;;;;;;;6.37;5.33;;;23.70;35.80;;;;;;5073453;28;20458;-53
2023/07/15 00:45:27;;;;;;;6.33;5.17;;;23.70;36.30;;;;;;5073329;28;20808;-54
2023/07/15 00:48:23;;;;;;;5.27;4.70;;;23.70;36.60;;;;;;5073640;28;20429;-56
2023/07/15 00:50:49;;;;;;;7.03;5.20;;;23.70;36.50;;;;;;5073308;28;20611;-56
2023/07/15 00:53:15;;;;;;;6.80;5.60;;;23.60;36.40;;;;;;5072803;28;20403;-54
2023/07/15 00:55:41;;;;;;;4.50;4.10;;;23.60;36.70;;;;;;5073475;28;20175;-56
2023/07/15 00:58:07;;;;;;;6.10;5.50;;;23.50;37.10;;;;;;5073312;28;20176;-56
2023/07/15 01:00:32;;;;;;;6.10;5.50;;;23.60;37.30;;;;;;5072708;28;20676;-53
2023/07/15 01:02:59;;;;;;;8.80;5.47;;;23.60;37.40;;;;;;5073010;28;20478;-55
2023/07/15 01:05:26;;;;;;;5.97;4.93;;;23.60;37.40;;;;;;5072966;28;20172;-53
2023/07/15 01:07:52;;;;;;;7.20;5.27;;;23.60;37.10;;;;;;5072773;28;20407;-56
2023/07/15 01:10:17;;;;;;;9.53;5.50;;;23.40;36.80;;;;;;5072358;28;20426;-55
2023/07/15 01:12:43;;;;;;;7.70;6.03;;;23.30;36.70;;;;;;5072668;28;20302;-54
2023/07/15 01:15:09;;;;;;;7.70;5.47;;;23.30;37.00;;;;;;5072657;28;20173;-53
2023/07/15 01:17:35;;;;;;;7.37;5.43;;;23.20;37.00;;;;;;5072939;28;20179;-56
2023/07/15 01:20:01;;;;;;;7.83;4.67;;;23.20;37.20;;;;;;5072497;28;20427;-56
2023/07/15 01:22:27;;;;;;;7.40;5.57;;;23.20;37.20;;;;;;5072539;28;20199;-54
2023/07/15 01:24:53;;;;;;;7.87;5.60;;;23.10;37.70;;;;;;5072407;28;20165;-54
2023/07/15 01:27:19;;;;;;;6.03;5.43;;;23.20;37.40;;;;;;5072431;28;20472;-57
2023/07/15 01:29:45;;;;;;;7.37;5.07;;;23.20;37.30;;;;;;5072236;28;20198;-54
2023/07/15 01:32:11;;;;;;;8.20;6.80;;;23.20;37.30;;;;;;5072545;28;20473;-54
2023/07/15 01:34:36;;;;;;;5.80;5.03;;;23.20;37.40;;;;;;5072550;28;20177;-57
2023/07/15 01:37:03;;;;;;;5.27;4.77;;;23.20;37.50;;;;;;5072122;28;20463;-57
2023/07/15 01:39:29;;;;;;;7.40;5.10;;;23.20;37.50;;;;;;5071999;28;20196;-54
2023/07/15 01:41:58;;;;;;;10.43;5.40;;;23.10;37.70;;;;;;5072118;28;20542;-54
2023/07/15 01:44:24;;;;;;;6.60;4.80;;;23.00;37.60;;;;;;5072388;28;20798;-57
2023/07/15 01:46:50;;;;;;;11.77;5.80;;;22.90;38.00;;;;;;5072352;28;20399;-55
2023/07/15 01:49:16;;;;;;;9.23;4.70;;;22.90;38.00;;;;;;5071785;28;20808;-55
2023/07/15 01:51:42;;;;;;;5.53;5.03;;;22.80;37.80;;;;;;5072022;28;20165;-58
2023/07/15 01:54:07;;;;;;;6.37;5.70;;;22.80;37.90;;;;;;5072244;28;20403;-54
2023/07/15 01:56:33;;;;;;;5.33;4.63;;;22.80;38.10;;;;;;5072142;28;20622;-54
2023/07/15 01:58:59;;;;;;;6.77;4.80;;;22.80;38.00;;;;;;5071994;28;20176;-56
2023/07/15 02:01:26;;;;;;;10.37;5.70;;;22.70;37.90;;;;;;5071956;28;20196;-56
2023/07/15 02:03:51;;;;;;;6.37;4.80;;;22.70;38.30;;;;;;5073164;28;20207;-54
2023/07/15 02:06:17;;;;;;;5.37;4.80;;;22.60;38.30;;;;;;5076256;28;20399;-54
2023/07/15 02:08:44;;;;;;;7.60;4.40;;;22.60;38.40;;;;;;5075986;28;20165;-56
2023/07/15 02:11:10;;;;;;;5.87;5.27;;;22.70;38.50;;;;;;5075897;28;20169;-58
2023/07/15 02:13:36;;;;;;;5.73;5.13;;;22.60;38.40;;;;;;5075917;28;20436;-54
2023/07/15 02:16:02;;;;;;;5.93;4.83;;;22.60;37.90;;;;;;5075971;28;20411;-54
2023/07/15 02:18:28;;;;;;;8.10;4.83;;;22.60;38.20;;;;;;5076105;28;20255;-56
2023/07/15 02:20:53;;;;;;;6.70;4.30;;;22.60;38.40;;;;;;5075557;28;20526;-54
2023/07/15 02:23:19;;;;;;;5.63;5.13;;;22.60;38.30;;;;;;5075993;28;20257;-56
2023/07/15 02:25:45;;;;;;;7.73;5.13;;;22.60;38.10;;;;;;5076303;28;20173;-57
2023/07/15 02:28:11;;;;;;;6.80;5.37;;;22.50;38.50;;;;;;5075822;28;20597;-53
2023/07/15 02:30:36;;;;;;;6.77;6.00;;;22.50;38.90;;;;;;5075779;28;20246;-54
2023/07/15 02:33:06;;;;;;;7.00;4.90;;;22.50;38.60;;;;;;5076061;28;20403;-56
2023/07/15 02:35:33;;;;;;;5.00;4.60;;;22.50;38.50;;;;;;5075752;28;20177;-56
2023/07/15 02:37:59;;;;;;;7.23;5.30;;;22.50;38.40;;;;;;5075534;28;20987;-55
2023/07/15 02:40:25;;;;;;;5.00;4.40;;;22.30;38.50;;;;;;5075656;28;20443;-58
2023/07/15 02:42:52;;;;;;;6.03;4.60;;;22.30;38.70;;;;;;5075420;28;21048;-55
2023/07/15 02:45:18;;;;;;;5.00;4.50;;;22.30;38.80;;;;;;5075734;28;20411;-55
2023/07/15 02:47:44;;;;;;;5.57;5.07;;;22.30;38.90;;;;;;5075635;28;20485;-57
2023/07/15 02:50:10;;;;;;;6.00;5.33;;;22.30;38.30;;;;;;5075065;28;20422;-54
2023/07/15 02:52:38;;;;;;;5.93;4.00;;;22.30;38.50;;;;;;5075411;28;20203;-54
2023/07/15 02:55:06;;;;;;;5.80;5.10;;;22.30;38.90;;;;;;5075463;28;20472;-58
2023/07/15 02:57:33;;;;;;;6.33;5.30;;;22.20;38.80;;;;;;5075146;28;20407;-56
2023/07/15 02:59:58;;;;;;;7.40;5.03;;;22.20;38.70;;;;;;5074877;28;20431;-54
2023/07/15 03:02:25;;;;;;;8.23;5.57;;;22.20;38.90;;;;;;5075171;28;20453;-56
2023/07/15 03:04:51;;;;;;;6.57;5.70;;;22.10;38.90;;;;;;5075221;28;20403;-55
2023/07/15 03:07:17;;;;;;;8.07;5.60;;;22.10;38.90;;;;;;5074966;28;20391;-55
2023/07/15 03:09:44;;;;;;;6.97;5.10;;;22.10;38.80;;;;;;5074620;28;20468;-57
2023/07/15 03:12:10;;;;;;;5.20;4.50;;;22.00;39.00;;;;;;5074851;28;20925;-57
2023/07/15 03:14:36;;;;;;;5.90;5.30;;;22.00;39.00;;;;;;5074549;28;20450;-54
2023/07/15 03:17:03;;;;;;;11.03;5.73;;;22.00;39.00;;;;;;5074904;28;20794;-54
2023/07/15 03:19:30;;;;;;;5.73;4.80;;;22.00;39.10;;;;;;5074591;28;20431;-58
2023/07/15 03:21:59;;;;;;;6.33;5.73;;;22.00;39.30;;;;;;5074674;28;20938;-57
2023/07/15 03:24:25;;;;;;;8.07;5.10;;;22.00;39.20;;;;;;5074638;28;20402;-55
2023/07/15 03:26:54;;;;;;;7.43;5.57;;;21.90;39.30;;;;;;5074860;28;20399;-55
2023/07/15 03:29:22;;;;;;;6.20;4.83;;;21.90;39.50;;;;;;5074164;28;20461;-57
2023/07/15 03:31:48;;;;;;;6.73;5.73;;;21.80;39.20;;;;;;5074740;28;20407;-55
2023/07/15 03:34:14;;;;;;;7.97;6.33;;;21.80;39.40;;;;;;5074389;28;20412;-54
2023/07/15 03:36:40;;;;;;;8.87;5.73;;;21.80;39.20;;;;;;5074377;28;20406;-56
2023/07/15 03:39:05;;;;;;;10.70;6.10;;;21.80;39.40;;;;;;5074364;28;20929;-59
2023/07/15 03:41:33;;;;;;;7.43;6.20;;;21.70;39.50;;;;;;5074465;28;20180;-54
2023/07/15 03:43:58;;;;;;;11.00;5.23;;;21.80;39.60;;;;;;5074291;28;20425;-56
2023/07/15 03:46:24;;;;;;;7.37;5.10;;;21.70;39.60;;;;;;5074719;28;20407;-55
2023/07/15 03:48:50;;;;;;;10.90;5.60;;;21.80;40.00;;;;;;5074235;28;20411;-54
2023/07/15 03:51:16;;;;;;;6.23;5.63;;;21.80;40.00;;;;;;5074144;28;20498;-54
2023/07/15 03:53:41;;;;;;;6.70;6.10;;;21.80;40.00;;;;;;5074171;28;20180;-57
2023/07/15 03:56:07;;;;;;;7.20;5.90;;;21.80;39.80;;;;;;5074422;28;20199;-55
2023/07/15 03:58:33;;;;;;;7.07;5.10;;;21.90;39.70;;;;;;5074354;28;20173;-57
2023/07/15 04:00:59;;;;;;;6.90;5.37;;;21.80;40.00;;;;;;5074012;28;20196;-56
2023/07/15 04:03:24;;;;;;;6.97;5.47;;;21.90;40.20;;;;;;5073857;28;20446;-54
2023/07/15 04:05:51;;;;;;;5.10;4.53;;;21.90;40.20;;;;;;5073801;28;20443;-55
2023/07/15 04:08:16;;;;;;;5.67;5.00;;;21.90;40.20;;;;;;5073818;28;20715;-57
2023/07/15 04:10:46;;;;;;;8.23;5.33;;;21.90;40.40;;;;;;5073440;28;20427;-57
2023/07/15 04:13:12;;;;;;;6.60;4.90;;;22.00;40.50;;;;;;5073615;28;20191;-55
2023/07/15 04:15:37;;;;;;;6.00;5.20;;;22.10;40.60;;;;;;5073842;28;20414;-54
2023/07/15 04:18:03;;;;;;;6.57;5.50;;;22.10;40.80;;;;;;5073596;28;20879;-57
2023/07/15 04:20:29;;;;;;;6.43;5.83;;;22.20;40.70;;;;;;5073364;28;20185;-54
2023/07/15 04:22:55;;;;;;;8.10;5.50;;;22.30;40.80;;;;;;5073618;28;20193;-56
2023/07/15 04:25:20;;;;;;;5.27;4.77;;;22.40;40.60;;;;;;5073997;28;20172;-54
2023/07/15 04:27:46;;;;;;;5.33;4.70;;;22.50;40.70;;;;;;5072910;28;20161;-54
2023/07/15 04:30:12;;;;;;;5.90;4.83;;;22.60;40.60;;;;;;5073538;28;20576;-56
2023/07/15 04:32:38;;;;;;;5.67;5.17;;;22.70;40.10;;;;;;5073562;28;20177;-54
2023/07/15 04:35:04;;;;;;;5.13;4.47;;;22.80;40.30;;;;;;5073256;28;20202;-56
2023/07/15 04:37:30;;;;;;;7.17;5.93;;;22.90;40.10;;;;;;5073265;28;20934;-57
2023/07/15 04:39:56;;;;;;;5.47;4.17;;;23.00;39.80;;;;;;5073332;28;20426;-55
2023/07/15 04:42:22;;;;;;;6.60;5.10;;;23.10;39.30;;;;;;5073364;28;20472;-57
2023/07/15 04:44:48;;;;;;;5.00;4.50;;;23.20;39.40;;;;;;5073393;28;20414;-57
2023/07/15 04:47:14;;;;;;;4.40;4.00;;;23.30;39.30;;;;;;5073163;28;20818;-54
2023/07/15 04:49:39;;;;;;;4.97;4.23;;;23.40;39.00;;;;;;5072742;28;20548;-57
2023/07/15 04:52:05;;;;;;;6.30;5.33;;;23.40;38.80;;;;;;5073129;28;20748;-55
2023/07/15 04:54:31;;;;;;;5.67;4.40;;;23.50;39.00;;;;;;5072974;28;20219;-57
2023/07/15 04:56:57;;;;;;;4.90;4.40;;;23.60;38.60;;;;;;5073020;28;20414;-57
2023/07/15 04:59:23;;;;;;;5.43;4.63;;;23.70;38.20;;;;;;5072774;28;20615;-55
2023/07/15 05:01:49;;;;;;;5.00;4.57;;;23.90;38.10;;;;;;5072896;28;20575;-55
2023/07/15 05:04:15;;;;;;;5.63;4.40;;;24.00;37.70;;;;;;5072779;28;20165;-57
2023/07/15 05:06:40;;;;;;;6.43;4.47;;;24.10;37.90;;;;;;5073057;28;20403;-57
2023/07/15 05:09:07;;;;;;;6.70;4.97;;;24.20;37.70;;;;;;5072652;28;20931;-54
2023/07/15 05:11:33;;;;;;;3.97;3.57;;;24.30;37.50;;;;;;5072700;28;20407;-55
2023/07/15 05:13:59;;;;;;;4.63;4.20;;;24.40;37.50;;;;;;5072653;28;20191;-56
2023/07/15 05:16:25;;;;;;;5.33;4.27;;;24.50;37.00;;;;;;5072783;28;20406;-56
2023/07/15 05:18:50;;;;;;;6.50;4.20;;;24.60;37.00;;;;;;5072301;28;20184;-55
2023/07/15 05:21:16;;;;;;;5.53;4.40;;;24.70;37.30;;;;;;5072792;28;20203;-56
2023/07/15 05:23:42;;;;;;;6.00;3.87;;;24.80;37.00;;;;;;5072696;28;20526;-54
2023/07/15 05:26:08;;;;;;;5.20;3.63;;;24.90;36.20;;;;;;5073002;28;20508;-58
2023/07/15 05:28:35;;;;;;;4.90;4.37;;;25.00;35.80;;;;;;5072967;28;20168;-57
2023/07/15 05:31:01;;;;;;;4.47;3.43;;;25.10;35.50;;;;;;5072265;28;20565;-54
2023/07/15 05:33:28;;;;;;;9.30;4.10;;;25.20;35.50;;;;;;5072544;28;20464;-55
2023/07/15 05:35:54;;;;;;;6.20;4.30;;;25.30;35.60;;;;;;5072631;28;20414;-57
2023/07/15 05:38:24;;;;;;;5.37;3.87;;;25.40;35.70;;;;;;5072623;28;20493;-54
2023/07/15 05:40:50;;;;;;;5.93;3.90;;;25.50;35.50;;;;;;5072186;28;20438;-54
2023/07/15 05:43:16;;;;;;;7.03;4.60;;;25.70;35.10;;;;;;5072450;28;20985;-56
2023/07/15 05:45:42;;;;;;;4.57;3.50;;;25.80;34.60;;;;;;5072588;28;20435;-54
2023/07/15 05:48:08;;;;;;;4.23;3.43;;;25.90;34.40;;;;;;5072628;28;20259;-56
2023/07/15 05:50:36;;;;;;;10.70;4.33;;;26.00;35.20;;;;;;5072327;28;20427;-54
2023/07/15 05:53:03;;;;;;;5.93;4.17;;;26.10;35.20;;;;;;5072405;28;20177;-53
2023/07/15 05:55:29;;;;;;;4.00;3.43;;;26.30;34.80;;;;;;5072268;28;20427;-57
2023/07/15 05:57:54;;;;;;;7.83;5.53;;;26.40;33.80;;;;;;5072082;28;20804;-54
2023/07/15 06:00:20;;;;;;;7.03;4.40;;;26.40;33.50;;;;;;5071939;28;20227;-57
2023/07/15 06:02:46;;;;;;;3.83;3.43;;;26.50;33.60;;;;;;5072085;28;20196;-55
2023/07/15 06:05:12;;;;;;;7.50;4.20;;;26.60;33.70;;;;;;5072207;28;20164;-54
2023/07/15 06:07:37;;;;;;;4.63;3.63;;;26.70;33.90;;;;;;5072199;28;20204;-56
2023/07/15 06:10:04;;;;;;;6.37;4.30;;;26.80;33.50;;;;;;5071838;28;20196;-55
2023/07/15 06:12:30;;;;;;;5.13;3.77;;;27.00;33.60;;;;;;5072327;28;20290;-55
2023/07/15 06:14:56;;;;;;;6.17;3.90;;;27.10;33.20;;;;;;5072141;28;20410;-56
2023/07/15 06:17:22;;;;;;;4.30;3.70;;;27.20;32.60;;;;;;5072400;28;20419;-57
2023/07/15 06:19:47;;;;;;;5.30;4.07;;;27.30;32.60;;;;;;5072210;28;20466;-54
2023/07/15 06:22:13;;;;;;;9.53;3.80;;;27.40;32.40;;;;;;5072216;28;20660;-56
2023/07/15 06:24:39;;;;;;;7.60;4.03;;;27.50;31.90;;;;;;5072030;28;20176;-54
2023/07/15 06:27:05;;;;;;;8.93;3.40;;;27.60;32.60;;;;;;5072208;28;20169;-55
2023/07/15 06:29:31;;;;;;;7.27;2.80;;;27.60;30.80;;;;;;5071567;28;20282;-57
2023/07/15 06:31:57;;;;;;;8.13;3.30;;;27.70;30.40;;;;;;5072130;28;20923;-55
2023/07/15 06:34:22;;;;;;;6.40;3.30;;;27.80;31.50;;;;;;5072233;28;20173;-57
2023/07/15 06:36:49;;;;;;;7.90;3.50;;;27.90;31.60;;;;;;5071995;28;20695;-55
2023/07/15 06:39:14;;;;;;;4.63;3.50;;;28.00;30.90;;;;;;5071614;28;20572;-56
2023/07/15 06:41:40;;;;;;;4.60;3.10;;;28.10;30.50;;;;;;5072131;28;20920;-54
2023/07/15 06:44:06;;;;;;;5.13;3.50;;;28.10;29.90;;;;;;5071801;28;20176;-54
2023/07/15 06:46:32;;;;;;;5.43;3.30;;;28.20;30.30;;;;;;5071841;28;20192;-54
2023/07/15 06:48:57;;;;;;;5.73;3.67;;;28.30;30.30;;;;;;5071990;28;20180;-57
2023/07/15 06:51:23;;;;;;;5.77;3.70;;;28.40;30.60;;;;;;5075008;28;20251;-54
2023/07/15 06:53:49;;;;;;;5.30;3.30;;;28.50;30.50;;;;;;5075345;28;20172;-54
2023/07/15 06:56:14;;;;;;;5.60;3.30;;;28.60;30.20;;;;;;5075315;28;20182;-57
2023/07/15 06:58:40;;;;;;;6.00;3.00;;;28.80;30.00;;;;;;5075232;28;20196;-54
2023/07/15 07:01:06;;;;;;;6.50;3.93;;;28.90;30.00;;;;;;5075011;28;20196;-54
2023/07/15 07:03:33;;;;;;;7.03;3.80;;;29.00;30.20;;;;;;5075395;28;20450;-58
2023/07/15 07:05:58;;;;;;;5.00;3.47;;;29.10;29.00;;;;;;5075254;28;20256;-53
2023/07/15 07:08:24;;;;;;;3.50;3.13;;;29.10;29.40;;;;;;5075215;28;20453;-55
2023/07/15 07:10:53;;;;;;;5.83;3.30;;;29.30;29.70;;;;;;5074937;28;20192;-56
2023/07/15 07:13:19;;;;;;;5.17;3.20;;;29.30;28.80;;;;;;5074991;28;20314;-54
2023/07/15 07:15:47;;;;;;;6.47;4.17;;;29.40;29.30;;;;;;5074902;28;20748;-56
2023/07/15 07:18:12;;;;;;;5.30;4.03;;;29.40;29.00;;;;;;5074899;28;20506;-55
2023/07/15 07:20:39;;;;;;;6.07;4.00;;;29.40;29.30;;;;;;5074643;28;20521;-54
2023/07/15 07:23:05;;;;;;;5.50;3.43;;;29.50;29.40;;;;;;5075146;28;20544;-57
2023/07/15 07:25:31;;;;;;;8.53;4.03;;;29.60;30.10;;;;;;5075023;28;20414;-54
2023/07/15 07:27:56;;;;;;;5.53;3.47;;;29.80;29.20;;;;;;5074906;28;20267;-54
2023/07/15 07:30:23;;;;;;;4.63;3.17;;;29.90;30.70;;;;;;5074940;28;20192;-56
2023/07/15 07:32:49;;;;;;;7.17;3.47;;;30.00;29.20;;;;;;5074790;28;20164;-56
2023/07/15 07:35:15;;;;;;;4.53;2.93;;;30.10;30.30;;;;;;5074901;28;20407;-54
2023/07/15 07:37:40;;;;;;;4.93;3.00;;;30.30;28.60;;;;;;5075072;28;20926;-53
2023/07/15 07:40:09;;;;;;;5.40;3.70;;;30.40;28.80;;;;;;5074533;28;20473;-56
2023/07/15 07:42:35;;;;;;;5.40;4.10;;;30.40;28.50;;;;;;5074587;28;20205;-55
2023/07/15 07:45:10;;;;;;;4.77;3.43;;;30.60;27.90;;;;;;5074443;28;20399;-55
2023/07/15 07:47:36;;;;;;;7.90;3.80;;;30.70;28.10;;;;;;5074521;28;20478;-57
2023/07/15 07:50:02;;;;;;;6.73;4.00;;;30.90;28.50;;;;;;5074427;28;20514;-54
2023/07/15 07:52:28;;;;;;;3.67;2.53;;;31.00;27.70;;;;;;5074734;28;20172;-54
2023/07/15 07:54:53;;;;;;;7.37;4.13;;;31.00;28.00;;;;;;5074526;28;20949;-57
2023/07/15 07:57:19;;;;;;;11.57;4.40;;;31.10;28.30;;;;;;5074553;28;20178;-56
2023/07/15 07:59:45;;;;;;;4.80;3.40;;;31.20;28.50;;;;;;5074387;28;20197;-54
2023/07/15 08:02:10;;;;;;;4.70;3.83;;;31.40;28.70;;;;;;5073515;28;20203;-54
2023/07/15 08:04:36;;;;;;;6.23;3.53;;;31.50;28.20;;;;;;5074433;28;20196;-57
2023/07/15 08:07:02;;;;;;;5.33;3.70;;;31.70;27.90;;;;;;5074438;28;20173;-55
2023/07/15 08:09:28;;;;;;;4.57;3.33;;;31.80;28.00;;;;;;5073966;28;20242;-54
2023/07/15 08:11:53;;;;;;;8.60;3.87;;;31.90;26.70;;;;;;5074378;28;20177;-57
2023/07/15 08:14:19;;;;;;;4.73;3.20;;;32.00;27.20;;;;;;5074150;28;20741;-55
2023/07/15 08:16:45;;;;;;;9.00;3.13;;;32.00;27.20;;;;;;5074239;28;20176;-54
2023/07/15 08:19:11;;;;;;;4.73;3.43;;;32.10;27.70;;;;;;5073839;28;20682;-56
2023/07/15 08:21:37;;;;;;;4.43;3.67;;;32.30;27.30;;;;;;5074194;28;20398;-57
2023/07/15 08:24:03;;;;;;;6.00;3.20;;;32.40;26.70;;;;;;5074044;28;20800;-54
2023/07/15 08:26:30;;;;;;;8.07;3.90;;;32.60;25.90;;;;;;5074061;28;20431;-53
2023/07/15 08:28:58;;;;;;;3.60;2.87;;;32.70;26.90;;;;;;5073909;28;20494;-54
2023/07/15 08:31:24;;;;;;;3.97;3.57;;;32.80;25.80;;;;;;5073831;28;20186;-56
2023/07/15 08:33:50;;;;;;;6.13;3.57;;;32.90;26.40;;;;;;5073984;28;20407;-56
2023/07/15 08:36:16;;;;;;;4.90;3.53;;;33.00;25.90;;;;;;5073909;28;20827;-54
2023/07/15 08:38:42;;;;;;;8.03;3.90;;;33.20;26.10;;;;;;5073636;28;20952;-57
2023/07/15 08:41:09;;;;;;;7.30;3.70;;;33.30;27.30;;;;;;5073659;28;20244;-55
2023/07/15 08:43:35;;;;;;;3.33;3.03;;;33.30;25.90;;;;;;5073484;28;20208;-54
2023/07/15 08:46:13;;;;;;;6.33;3.40;;;33.50;25.50;;;;;;5073620;28;20411;-57
2023/07/15 08:48:39;;;;;;;4.43;3.10;;;33.70;25.00;;;;;;5073688;28;20513;-57
2023/07/15 08:51:05;;;;;;;3.70;2.90;;;33.70;25.00;;;;;;5073120;28;20438;-54
2023/07/15 08:53:31;;;;;;;4.60;3.13;;;33.80;25.60;;;;;;5073019;28;20410;-54
2023/07/15 08:55:58;;;;;;;8.00;3.97;;;34.00;27.30;;;;;;5073211;28;20411;-57
2023/07/15 08:58:24;;;;;;;3.97;3.20;;;34.10;26.10;;;;;;5073076;28;20410;-54
2023/07/15 09:00:51;;;;;;;4.17;3.00;;;34.20;25.10;;;;;;5072657;28;20456;-56
2023/07/15 09:03:17;;;;;;;3.77;2.90;;;34.30;24.10;;;;;;5073071;28;20525;-56
2023/07/15 09:05:43;;;;;;;4.30;2.97;;;34.30;24.30;;;;;;5072970;28;20914;-55
2023/07/15 09:08:11;;;;;;;5.40;3.17;;;34.40;24.50;;;;;;5072632;28;20176;-55
2023/07/15 09:10:53;;;;;;;6.60;2.67;;;34.50;24.00;;;;;;5072749;28;20429;-57
2023/07/15 09:13:26;;;;;;;6.53;3.10;;;34.60;23.00;;;;;;5072235;28;20530;-55
2023/07/15 09:15:53;;;;;;;17.20;3.30;;;34.60;24.20;;;;;;5072840;28;20410;-57
2023/07/15 09:18:19;;;;;;;7.63;2.90;;;34.80;22.50;;;;;;5072591;28;20407;-57
2023/07/15 09:20:45;;;;;;;3.23;2.70;;;34.90;22.30;;;;;;5072213;28;20438;-55
2023/07/15 09:23:12;;;;;;;3.87;2.43;;;34.90;21.60;;;;;;5072798;28;20496;-55
2023/07/15 09:25:38;;;;;;;6.00;3.17;;;34.90;21.40;;;;;;5072634;28;20410;-56
2023/07/15 09:28:08;;;;;;;4.53;2.47;;;35.00;22.20;;;;;;5072536;28;20408;-56
2023/07/15 09:30:38;;;;;;;5.03;2.57;;;35.10;22.60;;;;;;5072388;28;20208;-55
2023/07/15 09:33:03;;;;;;;5.17;3.00;;;35.10;21.70;;;;;;5072212;28;20514;-57
2023/07/15 09:35:41;;;;;;;4.83;2.83;;;35.20;21.50;;;;;;5072567;28;20503;-55
2023/07/15 09:38:10;;;;;;;6.73;3.27;;;35.30;21.40;;;;;;5072352;28;20187;-57
2023/07/15 09:40:42;;;;;;;4.73;2.80;;;35.30;21.10;;;;;;5071972;28;20934;-55
2023/07/15 09:43:08;;;;;;;3.93;2.60;;;35.40;21.90;;;;;;5071998;28;20461;-57
2023/07/15 09:45:36;;;;;;;4.80;2.57;;;35.40;21.10;;;;;;5072127;28;20767;-57
2023/07/15 09:48:14;;;;;;;6.63;2.50;;;35.50;21.00;;;;;;5072509;28;20415;-54
2023/07/15 09:50:41;;;;;;;5.70;3.33;;;35.60;20.60;;;;;;5072241;28;20880;-54
2023/07/15 09:53:08;;;;;;;3.60;2.87;;;35.70;21.30;;;;;;5072034;28;20423;-57
2023/07/15 09:55:36;;;;;;;4.33;2.67;;;35.70;20.30;;;;;;5072238;28;20905;-56
2023/07/15 09:58:24;;;;;;;5.40;3.00;;;35.70;21.20;;;;;;5071935;28;20900;-53
2023/07/15 10:01:06;;;;;;;4.63;3.17;;;35.90;20.70;;;;;;5071846;28;20426;-56
2023/07/15 10:03:45;;;;;;;4.43;3.30;;;35.90;20.70;;;;;;5072183;28;20822;-56
2023/07/15 10:06:11;;;;;;;3.80;2.73;;;36.10;21.60;;;;;;5071984;28;20410;-58
2023/07/15 10:08:38;;;;;;;4.77;2.43;;;36.10;19.90;;;;;;5071988;28;20891;-55
2023/07/15 10:11:06;;;;;;;6.30;2.80;;;36.10;20.30;;;;;;5072000;28;20489;-57
2023/07/15 10:13:33;;;;;;;6.33;3.00;;;36.30;19.90;;;;;;5072108;28;20433;-56
2023/07/15 10:16:00;;;;;;;3.27;2.50;;;36.40;21.70;;;;;;5072089;28;21042;-54
2023/07/15 10:18:31;;;;;;;3.80;3.03;;;36.50;19.00;;;;;;5072078;28;20430;-56
2023/07/15 10:20:58;;;;;;;9.30;2.53;;;36.50;18.00;;;;;;5071496;28;20429;-56
2023/07/15 10:23:25;;;;;;;3.87;2.50;;;36.60;18.00;;;;;;5071825;28;20462;-55
2023/07/15 10:26:21;;;;;;;5.97;2.60;;;36.60;17.70;;;;;;5074605;28;20464;-56
2023/07/15 10:28:52;;;;;;;4.60;2.80;;;36.80;17.70;;;;;;5075700;28;20709;-55
2023/07/15 10:31:23;;;;;;;3.97;2.13;;;36.90;17.60;;;;;;5075734;28;20497;-57
2023/07/15 10:33:57;;;;;;;5.10;2.37;;;37.00;17.30;;;;;;5075814;28;20482;-55
2023/07/15 10:36:47;;;;;;;4.10;2.37;;;37.00;15.80;;;;;;5075986;28;20751;-55
2023/07/15 10:39:18;;;;;;;13.73;3.07;;;37.10;17.00;;;;;;5075340;28;20435;-55
2023/07/15 10:41:45;;;;;;;4.00;2.30;;;37.20;16.40;;;;;;5075331;28;20759;-55
2023/07/15 10:44:25;;;;;;;2.80;2.37;;;37.20;16.50;;;;;;5075555;28;20469;-58
2023/07/15 10:47:03;;;;;;;11.30;3.03;;;37.30;16.90;;;;;;5075373;28;20486;-57
2023/07/15 10:49:32;;;;;;;4.47;2.97;;;37.30;17.00;;;;;;5075159;28;20436;-57
2023/07/15 10:51:58;;;;;;;4.10;2.43;;;37.30;17.40;;;;;;5075216;28;20415;-53
2023/07/15 10:54:26;;;;;;;4.00;2.70;;;37.20;17.30;;;;;;5075081;28;20426;-54
2023/07/15 10:56:52;;;;;;;4.70;3.00;;;37.20;17.80;;;;;;5075121;28;20787;-55
2023/07/15 10:59:18;;;;;;;3.93;2.63;;;37.30;17.80;;;;;;5074756;28;20427;-57
2023/07/15 11:01:45;;;;;;;4.13;3.20;;;37.40;17.90;;;;;;5075189;28;20413;-54
2023/07/15 11:04:11;;;;;;;3.93;3.10;;;37.40;17.40;;;;;;5074912;28;20200;-54
2023/07/15 11:06:37;;;;;;;7.30;2.70;;;37.40;17.80;;;;;;5075254;28;20525;-57
2023/07/15 11:09:21;;;;;;;7.33;2.77;;;37.50;19.00;;;;;;5075009;28;20487;-54
2023/07/15 11:11:48;;;;;;;3.30;2.40;;;37.60;18.90;;;;;;5074813;28;20403;-57
2023/07/15 11:14:28;;;;;;;4.10;2.60;;;37.80;17.20;;;;;;5074783;28;20500;-55
2023/07/15 11:16:57;;;;;;;3.50;2.70;;;37.90;17.40;;;;;;5074863;28;20949;-54
2023/07/15 11:19:23;;;;;;;3.83;2.90;;;38.00;18.30;;;;;;5074305;28;20966;-56
2023/07/15 11:21:51;;;;;;;6.30;3.37;;;38.20;17.50;;;;;;5074732;28;20438;-54
2023/07/15 11:24:18;;;;;;;5.03;2.80;;;38.30;17.40;;;;;;5074954;28;20468;-56
2023/07/15 11:26:45;;;;;;;6.87;3.00;;;38.30;17.30;;;;;;5074533;28;20894;-55
2023/07/15 11:29:22;;;;;;;4.50;2.57;;;38.30;18.00;;;;;;5074379;28;20791;-57
2023/07/15 11:31:57;;;;;;;3.50;2.97;;;38.40;18.00;;;;;;5074462;28;20883;-54
2023/07/15 11:34:25;;;;;;;3.80;3.13;;;38.50;17.70;;;;;;5074698;28;20397;-56
2023/07/15 11:36:52;;;;;;;4.93;2.80;;;38.40;19.60;;;;;;5074445;28;20406;-57
2023/07/15 11:39:18;;;;;;;3.73;3.17;;;38.50;19.60;;;;;;5074396;28;20427;-53
2023/07/15 11:41:44;;;;;;;4.40;3.00;;;38.60;18.90;;;;;;5074329;28;20811;-54
2023/07/15 11:44:20;;;;;;;4.30;2.97;;;38.60;18.40;;;;;;5074182;28;20588;-57
2023/07/15 11:46:46;;;;;;;3.90;2.77;;;38.70;18.30;;;;;;5074662;28;20447;-54
2023/07/15 11:49:18;;;;;;;4.70;3.20;;;38.60;18.50;;;;;;5074371;28;20528;-56
2023/07/15 11:51:44;;;;;;;4.57;2.90;;;38.60;18.60;;;;;;5074550;28;20403;-57
2023/07/15 11:54:11;;;;;;;6.13;3.00;;;38.50;17.70;;;;;;5074572;28;20731;-54
2023/07/15 11:56:43;;;;;;;10.13;2.80;;;38.50;18.10;;;;;;5074445;28;20179;-56
2023/07/15 11:59:24;;;;;;;5.97;2.90;;;38.60;19.30;;;;;;5073870;28;20441;-57
2023/07/15 12:01:50;;;;;;;4.17;2.80;;;38.70;18.50;;;;;;5074122;28;20484;-54
2023/07/15 12:04:21;;;;;;;4.70;3.17;;;38.70;17.90;;;;;;5074181;28;20481;-55
2023/07/15 12:06:49;;;;;;;5.50;3.33;;;38.60;17.90;;;;;;5074002;28;20609;-54
2023/07/15 12:09:15;;;;;;;5.00;3.40;;;38.70;18.30;;;;;;5073805;28;20469;-56
2023/07/15 12:11:42;;;;;;;5.87;3.20;;;38.80;18.70;;;;;;5073973;28;20790;-57
2023/07/15 12:14:08;;;;;;;5.23;2.93;;;39.00;19.40;;;;;;5073701;28;20498;-55
2023/07/15 12:16:35;;;;;;;3.33;2.77;;;39.10;18.70;;;;;;5074010;28;20494;-57
2023/07/15 12:19:01;;;;;;;3.50;3.00;;;39.20;19.20;;;;;;5073603;28;20489;-54
2023/07/15 12:21:27;;;;;;;4.80;3.30;;;39.20;19.60;;;;;;5073944;28;20438;-56
2023/07/15 12:23:55;;;;;;;4.40;3.30;;;39.20;19.10;;;;;;5073445;28;20455;-56
2023/07/15 12:26:20;;;;;;;3.87;3.47;;;39.40;19.10;;;;;;5073617;28;20969;-54
2023/07/15 12:28:47;;;;;;;3.90;3.07;;;39.40;18.80;;;;;;5073468;28;20406;-56
2023/07/15 12:31:13;;;;;;;4.90;3.03;;;39.50;19.40;;;;;;5073124;28;20176;-56
2023/07/15 12:33:40;;;;;;;3.70;3.20;;;39.60;17.90;;;;;;5073685;28;20776;-56
2023/07/15 12:36:07;;;;;;;3.77;3.40;;;39.50;17.40;;;;;;5073743;28;20521;-56
2023/07/15 12:38:33;;;;;;;11.20;3.40;;;39.50;17.90;;;;;;5073096;28;20406;-56
2023/07/15 12:41:02;;;;;;;3.23;2.63;;;39.50;17.80;;;;;;5072975;28;20418;-56
2023/07/15 12:43:27;;;;;;;5.47;2.80;;;39.50;18.30;;;;;;5073504;28;20201;-58
2023/07/15 12:45:53;;;;;;;3.70;3.27;;;39.40;18.00;;;;;;5073565;28;20399;-56